sensor_id;sensor_type;location;lat;lon;timestamp;P1;durP1;ratioP1;P2;durP2;ratioP2
74665;SDS011;63193;50.106;8.694;2022-09-03T00:01:02;5.00;;;1.20;;
74665;SDS011;63193;50.106;8.694;2022-09-03T00:06:42;3.90;;;1.27;;
74665;SDS011;63193;50.106;8.694;2022-09-03T00:09:18;5.27;;;1.37;;
74665;SDS011;63193;50.106;8.694;2022-09-03T00:12:01;1.53;;;0.93;;
74665;SDS011;63193;50.106;8.694;2022-09-03T00:14:38;5.18;;;1.02;;
74665;SDS011;63193;50.106;8.694;2022-09-03T00:17:13;1.35;;;1.00;;
74665;SDS011;63193;50.106;8.694;2022-09-03T00:19:45;4.25;;;1.30;;
74665;SDS011;63193;50.106;8.694;2022-09-03T00:22:35;2.10;;;1.23;;
74665;SDS011;63193;50.106;8.694;2022-09-03T00:25:04;2.83;;;1.20;;
74665;SDS011;63193;50.106;8.694;2022-09-03T00:27:36;1.27;;;1.07;;
74665;SDS011;63193;50.106;8.694;2022-09-03T00:30:07;2.50;;;1.10;;
74665;SDS011;63193;50.106;8.694;2022-09-03T00:32:38;2.72;;;1.45;;
74665;SDS011;63193;50.106;8.694;2022-09-03T00:35:13;5.88;;;1.30;;
74665;SDS011;63193;50.106;8.694;2022-09-03T00:37:59;4.57;;;1.23;;
74665;SDS011;63193;50.106;8.694;2022-09-03T00:40:37;3.42;;;1.13;;
74665;SDS011;63193;50.106;8.694;2022-09-03T00:43:20;2.90;;;1.30;;
74665;SDS011;63193;50.106;8.694;2022-09-03T00:46:02;3.25;;;1.15;;
74665;SDS011;63193;50.106;8.694;2022-09-03T00:48:56;3.53;;;1.20;;
74665;SDS011;63193;50.106;8.694;2022-09-03T00:52:24;3.55;;;1.25;;
74665;SDS011;63193;50.106;8.694;2022-09-03T00:55:15;3.70;;;1.33;;
74665;SDS011;63193;50.106;8.694;2022-09-03T01:01:03;3.00;;;1.30;;
74665;SDS011;63193;50.106;8.694;2022-09-03T01:03:42;2.97;;;1.17;;
74665;SDS011;63193;50.106;8.694;2022-09-03T01:06:49;3.83;;;1.20;;
74665;SDS011;63193;50.106;8.694;2022-09-03T01:15:22;4.00;;;1.43;;
74665;SDS011;63193;50.106;8.694;2022-09-03T01:21:07;2.42;;;1.30;;
74665;SDS011;63193;50.106;8.694;2022-09-03T01:27:31;3.97;;;1.37;;
74665;SDS011;63193;50.106;8.694;2022-09-03T01:30:11;3.90;;;1.20;;
74665;SDS011;63193;50.106;8.694;2022-09-03T01:35:46;2.47;;;1.20;;
74665;SDS011;63193;50.106;8.694;2022-09-03T01:38:20;2.13;;;1.20;;
74665;SDS011;63193;50.106;8.694;2022-09-03T01:44:01;3.30;;;1.27;;
74665;SDS011;63193;50.106;8.694;2022-09-03T01:46:44;3.03;;;1.30;;
74665;SDS011;63193;50.106;8.694;2022-09-03T01:49:17;2.93;;;1.10;;
74665;SDS011;63193;50.106;8.694;2022-09-03T01:52:00;4.70;;;1.30;;
74665;SDS011;63193;50.106;8.694;2022-09-03T01:54:46;1.77;;;1.10;;
74665;SDS011;63193;50.106;8.694;2022-09-03T02:00:20;2.03;;;0.87;;
74665;SDS011;63193;50.106;8.694;2022-09-03T02:02:47;2.43;;;1.30;;
74665;SDS011;63193;50.106;8.694;2022-09-03T02:05:21;4.83;;;1.57;;
74665;SDS011;63193;50.106;8.694;2022-09-03T02:08:01;2.20;;;1.33;;
74665;SDS011;63193;50.106;8.694;2022-09-03T02:13:24;2.40;;;1.30;;
74665;SDS011;63193;50.106;8.694;2022-09-03T02:15:55;3.15;;;1.38;;
74665;SDS011;63193;50.106;8.694;2022-09-03T02:18:25;3.73;;;1.30;;
74665;SDS011;63193;50.106;8.694;2022-09-03T02:20:55;2.78;;;1.10;;
74665;SDS011;63193;50.106;8.694;2022-09-03T02:23:23;2.00;;;1.08;;
74665;SDS011;63193;50.106;8.694;2022-09-03T02:25:57;2.45;;;1.45;;
74665;SDS011;63193;50.106;8.694;2022-09-03T02:28:25;4.10;;;1.40;;
74665;SDS011;63193;50.106;8.694;2022-09-03T02:30:52;1.93;;;1.20;;
74665;SDS011;63193;50.106;8.694;2022-09-03T02:33:18;3.42;;;1.35;;
74665;SDS011;63193;50.106;8.694;2022-09-03T02:35:44;2.83;;;1.60;;
74665;SDS011;63193;50.106;8.694;2022-09-03T02:38:22;5.10;;;1.47;;
74665;SDS011;63193;50.106;8.694;2022-09-03T02:40:52;4.20;;;1.43;;
74665;SDS011;63193;50.106;8.694;2022-09-03T02:44:02;2.97;;;1.40;;
74665;SDS011;63193;50.106;8.694;2022-09-03T02:46:29;2.20;;;1.07;;
74665;SDS011;63193;50.106;8.694;2022-09-03T02:49:02;3.00;;;1.50;;
74665;SDS011;63193;50.106;8.694;2022-09-03T02:51:32;1.90;;;1.30;;
74665;SDS011;63193;50.106;8.694;2022-09-03T02:54:02;2.57;;;1.10;;
74665;SDS011;63193;50.106;8.694;2022-09-03T02:56:28;4.10;;;1.30;;
74665;SDS011;63193;50.106;8.694;2022-09-03T02:58:54;6.07;;;1.60;;
74665;SDS011;63193;50.106;8.694;2022-09-03T03:01:20;3.50;;;1.30;;
74665;SDS011;63193;50.106;8.694;2022-09-03T03:03:46;2.43;;;1.00;;
74665;SDS011;63193;50.106;8.694;2022-09-03T03:06:12;3.47;;;1.40;;
74665;SDS011;63193;50.106;8.694;2022-09-03T03:08:38;2.33;;;1.13;;
74665;SDS011;63193;50.106;8.694;2022-09-03T03:11:04;3.70;;;1.20;;
74665;SDS011;63193;50.106;8.694;2022-09-03T03:13:31;2.37;;;1.30;;
74665;SDS011;63193;50.106;8.694;2022-09-03T03:16:01;1.70;;;1.20;;
74665;SDS011;63193;50.106;8.694;2022-09-03T03:18:30;1.90;;;1.27;;
74665;SDS011;63193;50.106;8.694;2022-09-03T03:20:56;4.67;;;1.20;;
74665;SDS011;63193;50.106;8.694;2022-09-03T03:23:22;3.13;;;1.27;;
74665;SDS011;63193;50.106;8.694;2022-09-03T03:25:47;2.57;;;1.40;;
74665;SDS011;63193;50.106;8.694;2022-09-03T03:28:13;4.80;;;1.43;;
74665;SDS011;63193;50.106;8.694;2022-09-03T03:30:39;1.50;;;1.10;;
74665;SDS011;63193;50.106;8.694;2022-09-03T03:33:06;2.40;;;1.40;;
74665;SDS011;63193;50.106;8.694;2022-09-03T03:35:33;1.60;;;1.20;;
74665;SDS011;63193;50.106;8.694;2022-09-03T03:38:00;2.50;;;1.30;;
74665;SDS011;63193;50.106;8.694;2022-09-03T03:40:26;2.27;;;1.40;;
74665;SDS011;63193;50.106;8.694;2022-09-03T03:42:51;2.27;;;1.20;;
74665;SDS011;63193;50.106;8.694;2022-09-03T03:45:17;2.17;;;1.10;;
74665;SDS011;63193;50.106;8.694;2022-09-03T03:47:44;2.93;;;1.33;;
74665;SDS011;63193;50.106;8.694;2022-09-03T03:50:09;2.47;;;1.50;;
74665;SDS011;63193;50.106;8.694;2022-09-03T03:52:35;2.13;;;1.30;;
74665;SDS011;63193;50.106;8.694;2022-09-03T03:55:00;5.83;;;1.50;;
74665;SDS011;63193;50.106;8.694;2022-09-03T03:57:28;2.10;;;1.40;;
74665;SDS011;63193;50.106;8.694;2022-09-03T03:59:54;3.20;;;1.23;;
74665;SDS011;63193;50.106;8.694;2022-09-03T04:02:20;1.97;;;1.13;;
74665;SDS011;63193;50.106;8.694;2022-09-03T04:04:45;3.47;;;1.10;;
74665;SDS011;63193;50.106;8.694;2022-09-03T04:07:11;4.13;;;1.60;;
74665;SDS011;63193;50.106;8.694;2022-09-03T04:09:36;3.93;;;1.70;;
74665;SDS011;63193;50.106;8.694;2022-09-03T04:12:02;4.00;;;1.40;;
74665;SDS011;63193;50.106;8.694;2022-09-03T04:14:32;2.00;;;1.10;;
74665;SDS011;63193;50.106;8.694;2022-09-03T04:16:59;2.13;;;1.20;;
74665;SDS011;63193;50.106;8.694;2022-09-03T04:19:25;4.07;;;1.50;;
74665;SDS011;63193;50.106;8.694;2022-09-03T04:21:54;3.37;;;1.53;;
74665;SDS011;63193;50.106;8.694;2022-09-03T04:24:19;5.47;;;1.50;;
74665;SDS011;63193;50.106;8.694;2022-09-03T04:26:45;3.07;;;1.30;;
74665;SDS011;63193;50.106;8.694;2022-09-03T04:29:11;2.50;;;1.40;;
74665;SDS011;63193;50.106;8.694;2022-09-03T04:31:37;3.03;;;1.40;;
74665;SDS011;63193;50.106;8.694;2022-09-03T04:34:03;5.83;;;1.50;;
74665;SDS011;63193;50.106;8.694;2022-09-03T04:36:30;5.53;;;1.80;;
74665;SDS011;63193;50.106;8.694;2022-09-03T04:38:57;1.47;;;1.10;;
74665;SDS011;63193;50.106;8.694;2022-09-03T04:41:25;5.33;;;1.13;;
74665;SDS011;63193;50.106;8.694;2022-09-03T04:43:52;2.13;;;1.30;;
74665;SDS011;63193;50.106;8.694;2022-09-03T04:46:19;2.63;;;1.50;;
74665;SDS011;63193;50.106;8.694;2022-09-03T04:48:50;2.63;;;1.20;;
74665;SDS011;63193;50.106;8.694;2022-09-03T04:51:18;6.20;;;1.40;;
74665;SDS011;63193;50.106;8.694;2022-09-03T04:53:45;3.63;;;1.30;;
74665;SDS011;63193;50.106;8.694;2022-09-03T04:56:13;4.03;;;1.33;;
74665;SDS011;63193;50.106;8.694;2022-09-03T04:58:41;8.20;;;1.80;;
74665;SDS011;63193;50.106;8.694;2022-09-03T05:01:08;8.20;;;1.57;;
74665;SDS011;63193;50.106;8.694;2022-09-03T05:03:34;7.67;;;1.70;;
74665;SDS011;63193;50.106;8.694;2022-09-03T05:06:01;8.33;;;1.83;;
74665;SDS011;63193;50.106;8.694;2022-09-03T05:08:29;2.80;;;1.42;;
74665;SDS011;63193;50.106;8.694;2022-09-03T05:10:57;2.60;;;1.25;;
74665;SDS011;63193;50.106;8.694;2022-09-03T05:13:24;4.03;;;1.60;;
74665;SDS011;63193;50.106;8.694;2022-09-03T05:15:50;3.60;;;1.48;;
74665;SDS011;63193;50.106;8.694;2022-09-03T05:18:15;3.95;;;1.10;;
74665;SDS011;63193;50.106;8.694;2022-09-03T05:20:41;3.90;;;1.47;;
74665;SDS011;63193;50.106;8.694;2022-09-03T05:23:07;2.20;;;1.40;;
74665;SDS011;63193;50.106;8.694;2022-09-03T05:25:33;4.47;;;1.50;;
74665;SDS011;63193;50.106;8.694;2022-09-03T05:27:58;5.67;;;1.50;;
74665;SDS011;63193;50.106;8.694;2022-09-03T05:30:25;6.43;;;1.50;;
74665;SDS011;63193;50.106;8.694;2022-09-03T05:32:51;2.93;;;1.30;;
74665;SDS011;63193;50.106;8.694;2022-09-03T05:35:16;2.80;;;1.17;;
74665;SDS011;63193;50.106;8.694;2022-09-03T05:37:42;2.92;;;1.52;;
74665;SDS011;63193;50.106;8.694;2022-09-03T05:40:08;2.10;;;1.40;;
74665;SDS011;63193;50.106;8.694;2022-09-03T05:42:37;2.63;;;1.30;;
74665;SDS011;63193;50.106;8.694;2022-09-03T05:45:04;5.53;;;1.55;;
74665;SDS011;63193;50.106;8.694;2022-09-03T05:47:35;4.82;;;1.50;;
74665;SDS011;63193;50.106;8.694;2022-09-03T05:50:05;3.22;;;1.45;;
74665;SDS011;63193;50.106;8.694;2022-09-03T05:52:32;7.17;;;2.03;;
74665;SDS011;63193;50.106;8.694;2022-09-03T05:54:58;2.23;;;1.10;;
74665;SDS011;63193;50.106;8.694;2022-09-03T05:57:24;2.42;;;1.27;;
74665;SDS011;63193;50.106;8.694;2022-09-03T05:59:49;2.75;;;1.30;;
74665;SDS011;63193;50.106;8.694;2022-09-03T06:02:15;3.93;;;1.60;;
74665;SDS011;63193;50.106;8.694;2022-09-03T06:04:41;3.20;;;1.10;;
74665;SDS011;63193;50.106;8.694;2022-09-03T06:07:07;5.60;;;1.60;;
74665;SDS011;63193;50.106;8.694;2022-09-03T06:09:32;2.27;;;1.23;;
74665;SDS011;63193;50.106;8.694;2022-09-03T06:11:58;1.83;;;1.23;;
74665;SDS011;63193;50.106;8.694;2022-09-03T06:14:23;2.63;;;1.30;;
74665;SDS011;63193;50.106;8.694;2022-09-03T06:16:49;4.17;;;1.30;;
74665;SDS011;63193;50.106;8.694;2022-09-03T06:19:16;4.30;;;1.30;;
74665;SDS011;63193;50.106;8.694;2022-09-03T06:21:43;2.63;;;1.20;;
74665;SDS011;63193;50.106;8.694;2022-09-03T06:24:11;1.98;;;1.40;;
74665;SDS011;63193;50.106;8.694;2022-09-03T06:26:41;2.58;;;1.20;;
74665;SDS011;63193;50.106;8.694;2022-09-03T06:29:07;3.05;;;1.27;;
74665;SDS011;63193;50.106;8.694;2022-09-03T06:31:32;2.53;;;1.40;;
74665;SDS011;63193;50.106;8.694;2022-09-03T06:33:59;2.80;;;1.40;;
74665;SDS011;63193;50.106;8.694;2022-09-03T06:36:25;4.32;;;1.33;;
74665;SDS011;63193;50.106;8.694;2022-09-03T06:38:51;2.28;;;1.40;;
74665;SDS011;63193;50.106;8.694;2022-09-03T06:41:19;2.70;;;1.37;;
74665;SDS011;63193;50.106;8.694;2022-09-03T06:43:51;3.08;;;1.40;;
74665;SDS011;63193;50.106;8.694;2022-09-03T06:46:19;4.40;;;1.10;;
74665;SDS011;63193;50.106;8.694;2022-09-03T06:48:46;2.80;;;1.40;;
74665;SDS011;63193;50.106;8.694;2022-09-03T06:51:16;4.35;;;1.40;;
74665;SDS011;63193;50.106;8.694;2022-09-03T06:53:46;3.80;;;1.52;;
74665;SDS011;63193;50.106;8.694;2022-09-03T06:56:15;4.30;;;1.40;;
74665;SDS011;63193;50.106;8.694;2022-09-03T06:58:43;4.00;;;1.70;;
74665;SDS011;63193;50.106;8.694;2022-09-03T07:01:14;1.77;;;1.40;;
74665;SDS011;63193;50.106;8.694;2022-09-03T07:03:46;2.92;;;1.30;;
74665;SDS011;63193;50.106;8.694;2022-09-03T07:06:16;3.25;;;1.70;;
74665;SDS011;63193;50.106;8.694;2022-09-03T07:08:43;2.90;;;1.88;;
74665;SDS011;63193;50.106;8.694;2022-09-03T07:11:11;3.45;;;1.80;;
74665;SDS011;63193;50.106;8.694;2022-09-03T07:13:42;3.22;;;1.88;;
74665;SDS011;63193;50.106;8.694;2022-09-03T07:16:10;2.13;;;1.52;;
74665;SDS011;63193;50.106;8.694;2022-09-03T07:18:38;3.60;;;1.73;;
74665;SDS011;63193;50.106;8.694;2022-09-03T07:21:07;2.78;;;1.45;;
74665;SDS011;63193;50.106;8.694;2022-09-03T07:23:35;4.60;;;1.80;;
74665;SDS011;63193;50.106;8.694;2022-09-03T07:26:03;6.78;;;1.75;;
74665;SDS011;63193;50.106;8.694;2022-09-03T07:28:33;8.30;;;1.90;;
74665;SDS011;63193;50.106;8.694;2022-09-03T07:31:02;2.65;;;1.67;;
74665;SDS011;63193;50.106;8.694;2022-09-03T07:33:29;4.05;;;1.98;;
74665;SDS011;63193;50.106;8.694;2022-09-03T07:35:55;2.95;;;1.80;;
74665;SDS011;63193;50.106;8.694;2022-09-03T07:38:25;6.80;;;1.75;;
74665;SDS011;63193;50.106;8.694;2022-09-03T07:40:56;2.38;;;1.73;;
74665;SDS011;63193;50.106;8.694;2022-09-03T07:43:23;5.45;;;1.80;;
74665;SDS011;63193;50.106;8.694;2022-09-03T07:45:53;11.65;;;4.55;;
74665;SDS011;63193;50.106;8.694;2022-09-03T07:48:19;2.15;;;1.40;;
74665;SDS011;63193;50.106;8.694;2022-09-03T07:50:45;2.88;;;1.35;;
74665;SDS011;63193;50.106;8.694;2022-09-03T07:53:12;3.47;;;1.80;;
74665;SDS011;63193;50.106;8.694;2022-09-03T07:55:37;4.10;;;1.80;;
74665;SDS011;63193;50.106;8.694;2022-09-03T07:58:03;2.17;;;1.60;;
74665;SDS011;63193;50.106;8.694;2022-09-03T08:00:28;3.83;;;1.83;;
74665;SDS011;63193;50.106;8.694;2022-09-03T08:02:57;2.03;;;1.40;;
74665;SDS011;63193;50.106;8.694;2022-09-03T08:05:28;3.53;;;1.97;;
74665;SDS011;63193;50.106;8.694;2022-09-03T08:07:53;6.60;;;1.90;;
74665;SDS011;63193;50.106;8.694;2022-09-03T08:10:19;2.17;;;1.60;;
74665;SDS011;63193;50.106;8.694;2022-09-03T08:12:45;6.82;;;3.10;;
74665;SDS011;63193;50.106;8.694;2022-09-03T08:15:10;3.45;;;1.70;;
74665;SDS011;63193;50.106;8.694;2022-09-03T08:17:36;2.53;;;1.67;;
74665;SDS011;63193;50.106;8.694;2022-09-03T08:20:02;5.17;;;1.80;;
74665;SDS011;63193;50.106;8.694;2022-09-03T08:22:28;4.20;;;1.90;;
74665;SDS011;63193;50.106;8.694;2022-09-03T08:24:54;2.80;;;1.83;;
74665;SDS011;63193;50.106;8.694;2022-09-03T08:27:19;3.73;;;2.00;;
74665;SDS011;63193;50.106;8.694;2022-09-03T08:29:50;3.20;;;1.90;;
74665;SDS011;63193;50.106;8.694;2022-09-03T08:32:15;3.40;;;1.80;;
74665;SDS011;63193;50.106;8.694;2022-09-03T08:34:41;3.93;;;2.20;;
74665;SDS011;63193;50.106;8.694;2022-09-03T08:37:06;5.13;;;2.50;;
74665;SDS011;63193;50.106;8.694;2022-09-03T08:39:33;5.07;;;2.37;;
74665;SDS011;63193;50.106;8.694;2022-09-03T08:42:16;5.03;;;2.47;;
74665;SDS011;63193;50.106;8.694;2022-09-03T08:45:10;2.80;;;1.90;;
74665;SDS011;63193;50.106;8.694;2022-09-03T08:47:51;5.97;;;2.90;;
74665;SDS011;63193;50.106;8.694;2022-09-03T08:50:42;6.30;;;2.63;;
74665;SDS011;63193;50.106;8.694;2022-09-03T08:53:15;6.03;;;2.13;;
74665;SDS011;63193;50.106;8.694;2022-09-03T08:56:08;5.67;;;2.60;;
74665;SDS011;63193;50.106;8.694;2022-09-03T08:58:36;3.67;;;2.50;;
74665;SDS011;63193;50.106;8.694;2022-09-03T09:01:05;7.93;;;3.42;;
74665;SDS011;63193;50.106;8.694;2022-09-03T09:04:08;4.57;;;2.87;;
74665;SDS011;63193;50.106;8.694;2022-09-03T09:06:58;5.25;;;3.00;;
74665;SDS011;63193;50.106;8.694;2022-09-03T09:10:09;6.32;;;3.50;;
74665;SDS011;63193;50.106;8.694;2022-09-03T09:16:00;5.88;;;4.03;;
74665;SDS011;63193;50.106;8.694;2022-09-03T09:21:46;6.07;;;3.47;;
74665;SDS011;63193;50.106;8.694;2022-09-03T09:24:25;7.03;;;3.03;;
74665;SDS011;63193;50.106;8.694;2022-09-03T09:27:00;3.95;;;2.90;;
74665;SDS011;63193;50.106;8.694;2022-09-03T09:29:30;5.97;;;3.22;;
74665;SDS011;63193;50.106;8.694;2022-09-03T09:31:57;3.53;;;2.42;;
74665;SDS011;63193;50.106;8.694;2022-09-03T09:34:23;3.75;;;2.90;;
74665;SDS011;63193;50.106;8.694;2022-09-03T09:36:53;5.40;;;3.17;;
74665;SDS011;63193;50.106;8.694;2022-09-03T09:39:19;5.00;;;3.00;;
74665;SDS011;63193;50.106;8.694;2022-09-03T09:41:59;4.70;;;2.95;;
74665;SDS011;63193;50.106;8.694;2022-09-03T09:44:45;3.90;;;3.22;;
74665;SDS011;63193;50.106;8.694;2022-09-03T09:47:12;6.82;;;3.30;;
74665;SDS011;63193;50.106;8.694;2022-09-03T09:49:56;7.28;;;3.47;;
74665;SDS011;63193;50.106;8.694;2022-09-03T09:52:27;5.60;;;3.03;;
74665;SDS011;63193;50.106;8.694;2022-09-03T09:55:09;5.35;;;2.97;;
74665;SDS011;63193;50.106;8.694;2022-09-03T09:57:38;5.78;;;3.00;;
74665;SDS011;63193;50.106;8.694;2022-09-03T10:00:05;4.70;;;3.00;;
74665;SDS011;63193;50.106;8.694;2022-09-03T10:02:37;4.88;;;2.88;;
74665;SDS011;63193;50.106;8.694;2022-09-03T10:05:13;5.97;;;3.17;;
74665;SDS011;63193;50.106;8.694;2022-09-03T10:07:59;6.07;;;3.45;;
74665;SDS011;63193;50.106;8.694;2022-09-03T10:10:29;6.13;;;3.17;;
74665;SDS011;63193;50.106;8.694;2022-09-03T10:13:12;2.90;;;2.58;;
74665;SDS011;63193;50.106;8.694;2022-09-03T10:19:03;4.97;;;3.05;;
74665;SDS011;63193;50.106;8.694;2022-09-03T10:22:07;4.93;;;3.00;;
74665;SDS011;63193;50.106;8.694;2022-09-03T10:27:32;3.97;;;3.00;;
74665;SDS011;63193;50.106;8.694;2022-09-03T10:29:57;7.10;;;2.33;;
74665;SDS011;63193;50.106;8.694;2022-09-03T10:35:36;3.72;;;2.45;;
74665;SDS011;63193;50.106;8.694;2022-09-03T10:38:22;6.28;;;2.80;;
74665;SDS011;63193;50.106;8.694;2022-09-03T10:50:14;4.00;;;2.30;;
74665;SDS011;63193;50.106;8.694;2022-09-03T10:53:26;6.57;;;2.92;;
74665;SDS011;63193;50.106;8.694;2022-09-03T10:56:21;5.60;;;3.60;;
74665;SDS011;63193;50.106;8.694;2022-09-03T11:02:29;6.18;;;2.50;;
74665;SDS011;63193;50.106;8.694;2022-09-03T11:05:22;5.70;;;2.78;;
74665;SDS011;63193;50.106;8.694;2022-09-03T11:08:08;3.65;;;2.50;;
74665;SDS011;63193;50.106;8.694;2022-09-03T11:10:48;4.07;;;2.58;;
74665;SDS011;63193;50.106;8.694;2022-09-03T11:13:26;5.28;;;2.78;;
74665;SDS011;63193;50.106;8.694;2022-09-03T11:16:31;5.65;;;2.75;;
74665;SDS011;63193;50.106;8.694;2022-09-03T11:21:23;3.72;;;2.45;;
74665;SDS011;63193;50.106;8.694;2022-09-03T11:23:51;5.13;;;2.90;;
74665;SDS011;63193;50.106;8.694;2022-09-03T11:26:44;4.43;;;2.80;;
74665;SDS011;63193;50.106;8.694;2022-09-03T11:29:21;4.40;;;2.65;;
74665;SDS011;63193;50.106;8.694;2022-09-03T11:32:07;4.18;;;2.45;;
74665;SDS011;63193;50.106;8.694;2022-09-03T11:34:47;4.70;;;2.92;;
74665;SDS011;63193;50.106;8.694;2022-09-03T11:37:22;7.78;;;2.92;;
74665;SDS011;63193;50.106;8.694;2022-09-03T11:39:53;4.40;;;2.53;;
74665;SDS011;63193;50.106;8.694;2022-09-03T11:42:43;3.55;;;2.17;;
74665;SDS011;63193;50.106;8.694;2022-09-03T11:48:17;3.42;;;2.58;;
74665;SDS011;63193;50.106;8.694;2022-09-03T11:50:58;3.90;;;2.70;;
74665;SDS011;63193;50.106;8.694;2022-09-03T11:53:25;5.45;;;2.78;;
74665;SDS011;63193;50.106;8.694;2022-09-03T12:02:00;6.32;;;3.10;;
74665;SDS011;63193;50.106;8.694;2022-09-03T12:04:34;6.45;;;3.33;;
74665;SDS011;63193;50.106;8.694;2022-09-03T12:10:38;4.60;;;2.60;;
74665;SDS011;63193;50.106;8.694;2022-09-03T12:14:28;5.75;;;2.70;;
74665;SDS011;63193;50.106;8.694;2022-09-03T12:16:51;7.80;;;3.25;;
74665;SDS011;63193;50.106;8.694;2022-09-03T12:19:52;5.20;;;2.70;;
74665;SDS011;63193;50.106;8.694;2022-09-03T12:22:20;4.72;;;2.70;;
74665;SDS011;63193;50.106;8.694;2022-09-03T12:24:48;3.78;;;2.85;;
74665;SDS011;63193;50.106;8.694;2022-09-03T12:27:18;3.25;;;2.30;;
74665;SDS011;63193;50.106;8.694;2022-09-03T12:29:58;4.45;;;2.35;;
74665;SDS011;63193;50.106;8.694;2022-09-03T12:32:30;3.33;;;2.33;;
74665;SDS011;63193;50.106;8.694;2022-09-03T12:35:09;6.32;;;2.75;;
74665;SDS011;63193;50.106;8.694;2022-09-03T12:37:40;3.33;;;2.65;;
74665;SDS011;63193;50.106;8.694;2022-09-03T12:40:15;6.05;;;2.80;;
74665;SDS011;63193;50.106;8.694;2022-09-03T12:42:50;2.85;;;2.15;;
74665;SDS011;63193;50.106;8.694;2022-09-03T12:45:23;3.42;;;2.40;;
74665;SDS011;63193;50.106;8.694;2022-09-03T12:47:50;2.70;;;2.20;;
74665;SDS011;63193;50.106;8.694;2022-09-03T12:50:21;3.90;;;2.67;;
74665;SDS011;63193;50.106;8.694;2022-09-03T12:52:49;4.10;;;2.50;;
74665;SDS011;63193;50.106;8.694;2022-09-03T12:55:54;3.72;;;2.60;;
74665;SDS011;63193;50.106;8.694;2022-09-03T12:58:18;3.08;;;2.60;;
74665;SDS011;63193;50.106;8.694;2022-09-03T13:04:02;3.65;;;2.30;;
74665;SDS011;63193;50.106;8.694;2022-09-03T13:09:32;7.80;;;2.60;;
74665;SDS011;63193;50.106;8.694;2022-09-03T13:12:01;3.13;;;2.25;;
74665;SDS011;63193;50.106;8.694;2022-09-03T13:14:43;3.40;;;2.60;;
74665;SDS011;63193;50.106;8.694;2022-09-03T13:17:14;4.20;;;2.38;;
74665;SDS011;63193;50.106;8.694;2022-09-03T13:20:09;2.38;;;2.10;;
74665;SDS011;63193;50.106;8.694;2022-09-03T13:22:59;2.85;;;2.35;;
74665;SDS011;63193;50.106;8.694;2022-09-03T13:25:53;4.75;;;2.53;;
74665;SDS011;63193;50.106;8.694;2022-09-03T13:28:36;2.58;;;1.98;;
74665;SDS011;63193;50.106;8.694;2022-09-03T13:31:31;3.70;;;2.30;;
74665;SDS011;63193;50.106;8.694;2022-09-03T13:34:07;3.25;;;2.38;;
74665;SDS011;63193;50.106;8.694;2022-09-03T13:36:45;3.60;;;2.13;;
74665;SDS011;63193;50.106;8.694;2022-09-03T13:39:23;3.83;;;2.40;;
74665;SDS011;63193;50.106;8.694;2022-09-03T13:42:11;3.35;;;2.53;;
74665;SDS011;63193;50.106;8.694;2022-09-03T13:45:02;3.38;;;2.50;;
74665;SDS011;63193;50.106;8.694;2022-09-03T13:47:39;5.22;;;2.70;;
74665;SDS011;63193;50.106;8.694;2022-09-03T13:51:29;4.03;;;2.38;;
74665;SDS011;63193;50.106;8.694;2022-09-03T13:54:09;3.55;;;2.25;;
74665;SDS011;63193;50.106;8.694;2022-09-03T13:57:01;4.15;;;2.33;;
74665;SDS011;63193;50.106;8.694;2022-09-03T13:59:48;3.67;;;2.75;;
74665;SDS011;63193;50.106;8.694;2022-09-03T14:08:34;3.22;;;2.38;;
74665;SDS011;63193;50.106;8.694;2022-09-03T14:11:25;2.35;;;1.95;;
74665;SDS011;63193;50.106;8.694;2022-09-03T14:14:15;2.50;;;2.20;;
74665;SDS011;63193;50.106;8.694;2022-09-03T14:17:09;3.63;;;2.20;;
74665;SDS011;63193;50.106;8.694;2022-09-03T14:19:57;3.28;;;2.28;;
74665;SDS011;63193;50.106;8.694;2022-09-03T14:22:46;2.80;;;2.10;;
74665;SDS011;63193;50.106;8.694;2022-09-03T14:25:37;2.90;;;1.90;;
74665;SDS011;63193;50.106;8.694;2022-09-03T14:28:14;2.85;;;2.00;;
74665;SDS011;63193;50.106;8.694;2022-09-03T14:37:35;1.63;;;1.50;;
74665;SDS011;63193;50.106;8.694;2022-09-03T14:40:17;3.08;;;1.80;;
74665;SDS011;63193;50.106;8.694;2022-09-03T14:43:09;3.40;;;1.98;;
74665;SDS011;63193;50.106;8.694;2022-09-03T14:46:06;3.60;;;2.00;;
74665;SDS011;63193;50.106;8.694;2022-09-03T14:49:07;1.92;;;1.70;;
74665;SDS011;63193;50.106;8.694;2022-09-03T14:55:17;3.08;;;2.10;;
74665;SDS011;63193;50.106;8.694;2022-09-03T14:58:06;2.40;;;1.92;;
74665;SDS011;63193;50.106;8.694;2022-09-03T15:00:50;2.17;;;1.70;;
74665;SDS011;63193;50.106;8.694;2022-09-03T15:03:32;2.00;;;1.80;;
74665;SDS011;63193;50.106;8.694;2022-09-03T15:06:44;2.22;;;1.70;;
74665;SDS011;63193;50.106;8.694;2022-09-03T15:09:58;3.88;;;1.85;;
74665;SDS011;63193;50.106;8.694;2022-09-03T15:12:15;1.60;;;1.50;;
74665;SDS011;63193;50.106;8.694;2022-09-03T15:14:49;1.95;;;1.67;;
74665;SDS011;63193;50.106;8.694;2022-09-03T15:17:53;2.03;;;1.67;;
74665;SDS011;63193;50.106;8.694;2022-09-03T15:26:38;4.13;;;1.88;;
74665;SDS011;63193;50.106;8.694;2022-09-03T15:32:38;1.92;;;1.73;;
74665;SDS011;63193;50.106;8.694;2022-09-03T15:35:18;2.75;;;1.58;;
74665;SDS011;63193;50.106;8.694;2022-09-03T15:38:04;1.60;;;1.50;;
74665;SDS011;63193;50.106;8.694;2022-09-03T15:40:48;4.05;;;1.70;;
74665;SDS011;63193;50.106;8.694;2022-09-03T15:43:17;2.40;;;1.70;;
74665;SDS011;63193;50.106;8.694;2022-09-03T15:46:02;1.98;;;1.73;;
74665;SDS011;63193;50.106;8.694;2022-09-03T15:48:49;2.90;;;1.58;;
74665;SDS011;63193;50.106;8.694;2022-09-03T15:51:25;2.53;;;1.90;;
74665;SDS011;63193;50.106;8.694;2022-09-03T15:53:58;2.45;;;2.03;;
74665;SDS011;63193;50.106;8.694;2022-09-03T15:56:54;2.42;;;1.88;;
74665;SDS011;63193;50.106;8.694;2022-09-03T16:00:16;3.20;;;1.83;;
74665;SDS011;63193;50.106;8.694;2022-09-03T16:02:24;2.90;;;1.90;;
74665;SDS011;63193;50.106;8.694;2022-09-03T16:05:02;4.32;;;2.17;;
74665;SDS011;63193;50.106;8.694;2022-09-03T16:07:40;2.58;;;2.05;;
74665;SDS011;63193;50.106;8.694;2022-09-03T16:10:21;2.30;;;1.88;;
74665;SDS011;63193;50.106;8.694;2022-09-03T16:13:04;3.05;;;2.00;;
74665;SDS011;63193;50.106;8.694;2022-09-03T16:16:02;2.40;;;2.00;;
74665;SDS011;63193;50.106;8.694;2022-09-03T16:18:35;2.53;;;2.00;;
74665;SDS011;63193;50.106;8.694;2022-09-03T16:21:12;3.28;;;1.92;;
74665;SDS011;63193;50.106;8.694;2022-09-03T16:23:54;4.07;;;2.40;;
74665;SDS011;63193;50.106;8.694;2022-09-03T16:26:30;2.20;;;1.95;;
74665;SDS011;63193;50.106;8.694;2022-09-03T16:29:07;2.25;;;1.95;;
74665;SDS011;63193;50.106;8.694;2022-09-03T16:31:53;3.10;;;2.20;;
74665;SDS011;63193;50.106;8.694;2022-09-03T16:34:47;3.35;;;1.90;;
74665;SDS011;63193;50.106;8.694;2022-09-03T16:37:39;2.05;;;1.85;;
74665;SDS011;63193;50.106;8.694;2022-09-03T16:43:13;6.32;;;2.30;;
74665;SDS011;63193;50.106;8.694;2022-09-03T16:46:10;3.22;;;2.25;;
74665;SDS011;63193;50.106;8.694;2022-09-03T16:49:27;3.70;;;2.63;;
74665;SDS011;63193;50.106;8.694;2022-09-03T16:52:11;3.78;;;2.70;;
74665;SDS011;63193;50.106;8.694;2022-09-03T16:55:07;5.00;;;2.80;;
74665;SDS011;63193;50.106;8.694;2022-09-03T16:58:01;3.60;;;2.45;;
74665;SDS011;63193;50.106;8.694;2022-09-03T17:13:36;4.60;;;2.20;;
74665;SDS011;63193;50.106;8.694;2022-09-03T17:19:25;3.42;;;2.47;;
74665;SDS011;63193;50.106;8.694;2022-09-03T17:25:23;7.05;;;2.30;;
74665;SDS011;63193;50.106;8.694;2022-09-03T17:28:12;3.20;;;1.52;;
74665;SDS011;63193;50.106;8.694;2022-09-03T17:31:01;2.47;;;1.63;;
74665;SDS011;63193;50.106;8.694;2022-09-03T17:35:16;2.90;;;1.70;;
74665;SDS011;63193;50.106;8.694;2022-09-03T17:36:56;3.20;;;1.98;;
74665;SDS011;63193;50.106;8.694;2022-09-03T17:39:41;2.88;;;1.75;;
74665;SDS011;63193;50.106;8.694;2022-09-03T17:42:31;5.43;;;2.20;;
74665;SDS011;63193;50.106;8.694;2022-09-03T17:48:49;1.60;;;1.20;;
74665;SDS011;63193;50.106;8.694;2022-09-03T17:51:57;2.50;;;1.20;;